sensor_id;sensor_type;location;lat;lon;timestamp;temperature;humidity
69189;DHT22;56302;52.322;5.926;2022-10-17T00:00:45;11.70;95.30
69189;DHT22;56302;52.322;5.926;2022-10-17T00:03:12;11.60;95.20
69189;DHT22;56302;52.322;5.926;2022-10-17T00:05:43;11.60;95.40
69189;DHT22;56302;52.322;5.926;2022-10-17T00:08:11;11.70;95.80
69189;DHT22;56302;52.322;5.926;2022-10-17T00:10:37;11.60;95.60
69189;DHT22;56302;52.322;5.926;2022-10-17T00:13:02;11.70;95.50
69189;DHT22;56302;52.322;5.926;2022-10-17T00:15:28;11.60;95.40
69189;DHT22;56302;52.322;5.926;2022-10-17T00:17:53;11.60;95.30
69189;DHT22;56302;52.322;5.926;2022-10-17T00:20:19;11.60;95.20
69189;DHT22;56302;52.322;5.926;2022-10-17T00:22:45;11.60;95.10
69189;DHT22;56302;52.322;5.926;2022-10-17T00:25:10;11.50;95.50
69189;DHT22;56302;52.322;5.926;2022-10-17T00:27:38;11.50;95.80
69189;DHT22;56302;52.322;5.926;2022-10-17T00:30:06;11.50;95.90
69189;DHT22;56302;52.322;5.926;2022-10-17T00:32:32;11.50;96.00
69189;DHT22;56302;52.322;5.926;2022-10-17T00:34:57;11.50;96.00
69189;DHT22;56302;52.322;5.926;2022-10-17T00:37:23;11.50;96.00
69189;DHT22;56302;52.322;5.926;2022-10-17T00:39:49;11.40;95.90
69189;DHT22;56302;52.322;5.926;2022-10-17T00:42:14;11.40;95.90
69189;DHT22;56302;52.322;5.926;2022-10-17T00:47:09;11.40;95.60
69189;DHT22;56302;52.322;5.926;2022-10-17T00:49:37;11.40;95.60
69189;DHT22;56302;52.322;5.926;2022-10-17T00:52:12;11.40;95.50
69189;DHT22;56302;52.322;5.926;2022-10-17T00:54:44;11.40;95.40
69189;DHT22;56302;52.322;5.926;2022-10-17T00:57:11;11.40;95.40
69189;DHT22;56302;52.322;5.926;2022-10-17T00:59:39;11.40;95.40
69189;DHT22;56302;52.322;5.926;2022-10-17T01:02:09;11.30;95.20
69189;DHT22;56302;52.322;5.926;2022-10-17T01:04:36;11.30;95.30
69189;DHT22;56302;52.322;5.926;2022-10-17T01:07:03;11.30;95.20
69189;DHT22;56302;52.322;5.926;2022-10-17T01:09:28;11.20;95.40
69189;DHT22;56302;52.322;5.926;2022-10-17T01:12:03;11.30;95.50
69189;DHT22;56302;52.322;5.926;2022-10-17T01:14:40;11.30;95.30
69189;DHT22;56302;52.322;5.926;2022-10-17T01:17:39;11.30;95.10
69189;DHT22;56302;52.322;5.926;2022-10-17T01:20:16;11.30;95.00
69189;DHT22;56302;52.322;5.926;2022-10-17T01:39:15;11.10;95.20
69189;DHT22;56302;52.322;5.926;2022-10-17T01:42:01;11.10;95.30
69189;DHT22;56302;52.322;5.926;2022-10-17T01:44:41;11.10;95.60
69189;DHT22;56302;52.322;5.926;2022-10-17T01:47:11;11.10;95.50
69189;DHT22;56302;52.322;5.926;2022-10-17T01:49:39;11.10;95.50
69189;DHT22;56302;52.322;5.926;2022-10-17T01:52:09;11.10;95.50
69189;DHT22;56302;52.322;5.926;2022-10-17T01:54:42;11.10;95.30
69189;DHT22;56302;52.322;5.926;2022-10-17T01:57:16;11.10;95.10
69189;DHT22;56302;52.322;5.926;2022-10-17T01:59:45;11.10;95.10
69189;DHT22;56302;52.322;5.926;2022-10-17T02:02:13;11.10;95.30
69189;DHT22;56302;52.322;5.926;2022-10-17T02:04:41;11.10;95.20
69189;DHT22;56302;52.322;5.926;2022-10-17T02:07:08;11.10;95.40
69189;DHT22;56302;52.322;5.926;2022-10-17T02:09:34;11.10;95.40
69189;DHT22;56302;52.322;5.926;2022-10-17T02:25:17;11.10;95.40
69189;DHT22;56302;52.322;5.926;2022-10-17T02:27:51;11.10;95.50
69189;DHT22;56302;52.322;5.926;2022-10-17T02:30:26;11.10;95.60
69189;DHT22;56302;52.322;5.926;2022-10-17T02:33:12;11.10;95.80
69189;DHT22;56302;52.322;5.926;2022-10-17T02:35:43;11.20;96.10
69189;DHT22;56302;52.322;5.926;2022-10-17T02:38:11;11.10;96.20
69189;DHT22;56302;52.322;5.926;2022-10-17T02:40:39;11.20;96.60
69189;DHT22;56302;52.322;5.926;2022-10-17T02:43:05;11.10;96.40
69189;DHT22;56302;52.322;5.926;2022-10-17T02:45:32;11.10;96.70
69189;DHT22;56302;52.322;5.926;2022-10-17T02:48:17;11.10;96.70
69189;DHT22;56302;52.322;5.926;2022-10-17T02:53:14;11.10;96.50
69189;DHT22;56302;52.322;5.926;2022-10-17T02:55:54;11.10;96.50
69189;DHT22;56302;52.322;5.926;2022-10-17T02:58:24;11.10;96.60
69189;DHT22;56302;52.322;5.926;2022-10-17T03:00:52;11.10;96.90
69189;DHT22;56302;52.322;5.926;2022-10-17T03:03:24;11.00;97.10
69189;DHT22;56302;52.322;5.926;2022-10-17T03:05:50;11.00;97.30
69189;DHT22;56302;52.322;5.926;2022-10-17T03:08:16;11.10;97.60
69189;DHT22;56302;52.322;5.926;2022-10-17T03:11:09;11.10;97.80
69189;DHT22;56302;52.322;5.926;2022-10-17T03:13:35;11.10;97.40
69189;DHT22;56302;52.322;5.926;2022-10-17T03:16:00;11.20;98.00
69189;DHT22;56302;52.322;5.926;2022-10-17T03:18:26;11.20;98.00
69189;DHT22;56302;52.322;5.926;2022-10-17T03:20:51;11.30;98.50
69189;DHT22;56302;52.322;5.926;2022-10-17T03:23:17;11.40;98.90
69189;DHT22;56302;52.322;5.926;2022-10-17T03:25:43;11.30;98.60
69189;DHT22;56302;52.322;5.926;2022-10-17T03:28:09;11.30;98.90
69189;DHT22;56302;52.322;5.926;2022-10-17T03:30:37;11.40;99.10
69189;DHT22;56302;52.322;5.926;2022-10-17T03:33:02;11.50;99.40
69189;DHT22;56302;52.322;5.926;2022-10-17T03:35:28;11.60;99.80
69189;DHT22;56302;52.322;5.926;2022-10-17T03:37:56;11.60;99.90
69189;DHT22;56302;52.322;5.926;2022-10-17T03:40:22;11.70;99.90
69189;DHT22;56302;52.322;5.926;2022-10-17T03:42:48;11.70;99.90
69189;DHT22;56302;52.322;5.926;2022-10-17T03:45:13;11.70;99.90
69189;DHT22;56302;52.322;5.926;2022-10-17T03:47:39;11.80;99.90
69189;DHT22;56302;52.322;5.926;2022-10-17T03:50:05;11.90;99.90
69189;DHT22;56302;52.322;5.926;2022-10-17T03:52:30;12.00;99.90
69189;DHT22;56302;52.322;5.926;2022-10-17T03:54:56;12.00;99.90
69189;DHT22;56302;52.322;5.926;2022-10-17T03:57:21;12.00;99.90
69189;DHT22;56302;52.322;5.926;2022-10-17T03:59:49;11.90;99.90
69189;DHT22;56302;52.322;5.926;2022-10-17T04:02:15;12.00;99.90
69189;DHT22;56302;52.322;5.926;2022-10-17T04:04:40;11.90;99.90
69189;DHT22;56302;52.322;5.926;2022-10-17T04:07:06;11.80;99.90
69189;DHT22;56302;52.322;5.926;2022-10-17T04:09:32;11.90;99.90
69189;DHT22;56302;52.322;5.926;2022-10-17T04:11:57;11.90;99.90
69189;DHT22;56302;52.322;5.926;2022-10-17T04:14:23;12.00;99.90
69189;DHT22;56302;52.322;5.926;2022-10-17T04:16:48;11.90;99.90
69189;DHT22;56302;52.322;5.926;2022-10-17T04:19:14;11.90;99.90
69189;DHT22;56302;52.322;5.926;2022-10-17T04:21:40;12.00;99.90
69189;DHT22;56302;52.322;5.926;2022-10-17T04:24:09;12.00;99.90
69189;DHT22;56302;52.322;5.926;2022-10-17T04:26:35;12.00;99.90
69189;DHT22;56302;52.322;5.926;2022-10-17T04:29:06;12.10;99.90
69189;DHT22;56302;52.322;5.926;2022-10-17T04:31:35;12.10;99.90
69189;DHT22;56302;52.322;5.926;2022-10-17T04:34:00;12.10;99.90
69189;DHT22;56302;52.322;5.926;2022-10-17T04:36:26;12.10;99.90
69189;DHT22;56302;52.322;5.926;2022-10-17T04:38:51;12.10;99.90
69189;DHT22;56302;52.322;5.926;2022-10-17T04:41:18;12.10;99.90
69189;DHT22;56302;52.322;5.926;2022-10-17T04:43:43;12.20;99.90
69189;DHT22;56302;52.322;5.926;2022-10-17T04:46:11;12.20;99.90
69189;DHT22;56302;52.322;5.926;2022-10-17T04:48:38;12.20;99.90
69189;DHT22;56302;52.322;5.926;2022-10-17T04:51:06;12.10;99.90
69189;DHT22;56302;52.322;5.926;2022-10-17T04:53:34;12.20;99.90
69189;DHT22;56302;52.322;5.926;2022-10-17T04:56:00;12.10;99.90
69189;DHT22;56302;52.322;5.926;2022-10-17T04:58:28;12.10;99.90
69189;DHT22;56302;52.322;5.926;2022-10-17T05:00:54;12.20;99.90
69189;DHT22;56302;52.322;5.926;2022-10-17T05:03:19;12.20;99.90
69189;DHT22;56302;52.322;5.926;2022-10-17T05:05:45;12.30;99.90
69189;DHT22;56302;52.322;5.926;2022-10-17T05:08:10;12.30;99.90
69189;DHT22;56302;52.322;5.926;2022-10-17T05:10:40;12.30;99.90
69189;DHT22;56302;52.322;5.926;2022-10-17T05:13:07;12.40;99.90
69189;DHT22;56302;52.322;5.926;2022-10-17T05:15:33;12.30;99.90
69189;DHT22;56302;52.322;5.926;2022-10-17T05:17:59;12.40;99.90
69189;DHT22;56302;52.322;5.926;2022-10-17T05:20:25;12.40;99.90
69189;DHT22;56302;52.322;5.926;2022-10-17T05:22:51;12.40;99.90
69189;DHT22;56302;52.322;5.926;2022-10-17T05:25:16;12.40;99.90
69189;DHT22;56302;52.322;5.926;2022-10-17T05:27:42;12.40;99.90
69189;DHT22;56302;52.322;5.926;2022-10-17T05:30:07;12.30;99.90
69189;DHT22;56302;52.322;5.926;2022-10-17T05:32:33;12.50;99.90
69189;DHT22;56302;52.322;5.926;2022-10-17T05:34:59;12.40;99.90
69189;DHT22;56302;52.322;5.926;2022-10-17T05:37:24;12.40;99.90
69189;DHT22;56302;52.322;5.926;2022-10-17T05:39:50;12.50;99.90
69189;DHT22;56302;52.322;5.926;2022-10-17T05:42:16;12.50;99.90
69189;DHT22;56302;52.322;5.926;2022-10-17T05:44:41;12.50;99.90
69189;DHT22;56302;52.322;5.926;2022-10-17T05:47:07;12.50;99.90
69189;DHT22;56302;52.322;5.926;2022-10-17T05:49:33;12.50;99.90
69189;DHT22;56302;52.322;5.926;2022-10-17T05:51:59;12.60;99.90
69189;DHT22;56302;52.322;5.926;2022-10-17T05:54:24;12.60;99.90
69189;DHT22;56302;52.322;5.926;2022-10-17T05:56:54;12.60;99.90
69189;DHT22;56302;52.322;5.926;2022-10-17T05:59:20;12.60;99.90
69189;DHT22;56302;52.322;5.926;2022-10-17T06:01:46;12.60;99.90
69189;DHT22;56302;52.322;5.926;2022-10-17T06:04:11;12.70;99.90
69189;DHT22;56302;52.322;5.926;2022-10-17T06:06:38;12.80;99.90
69189;DHT22;56302;52.322;5.926;2022-10-17T06:09:04;12.90;99.90
69189;DHT22;56302;52.322;5.926;2022-10-17T06:11:30;12.90;99.90
69189;DHT22;56302;52.322;5.926;2022-10-17T06:13:56;13.00;99.90
69189;DHT22;56302;52.322;5.926;2022-10-17T06:16:21;13.10;99.90
69189;DHT22;56302;52.322;5.926;2022-10-17T06:18:47;13.30;99.90
69189;DHT22;56302;52.322;5.926;2022-10-17T06:21:16;13.40;99.90
69189;DHT22;56302;52.322;5.926;2022-10-17T06:23:42;13.60;99.90
69189;DHT22;56302;52.322;5.926;2022-10-17T06:26:08;13.60;99.90
69189;DHT22;56302;52.322;5.926;2022-10-17T06:28:34;13.80;99.90
69189;DHT22;56302;52.322;5.926;2022-10-17T06:31:07;13.70;99.90
69189;DHT22;56302;52.322;5.926;2022-10-17T06:33:34;13.80;99.90
69189;DHT22;56302;52.322;5.926;2022-10-17T06:35:59;13.80;99.90
69189;DHT22;56302;52.322;5.926;2022-10-17T06:38:25;14.00;99.90
69189;DHT22;56302;52.322;5.926;2022-10-17T06:40:51;14.00;99.90
69189;DHT22;56302;52.322;5.926;2022-10-17T06:43:18;13.90;99.90
69189;DHT22;56302;52.322;5.926;2022-10-17T06:45:47;14.00;99.90
69189;DHT22;56302;52.322;5.926;2022-10-17T06:48:12;14.10;99.90
69189;DHT22;56302;52.322;5.926;2022-10-17T06:50:38;14.20;99.90
69189;DHT22;56302;52.322;5.926;2022-10-17T06:53:04;14.20;99.90
69189;DHT22;56302;52.322;5.926;2022-10-17T06:55:31;14.30;99.90
69189;DHT22;56302;52.322;5.926;2022-10-17T06:57:56;14.30;99.90
69189;DHT22;56302;52.322;5.926;2022-10-17T07:00:22;14.50;99.90
69189;DHT22;56302;52.322;5.926;2022-10-17T07:02:48;14.50;99.90
69189;DHT22;56302;52.322;5.926;2022-10-17T07:05:14;14.50;99.90
69189;DHT22;56302;52.322;5.926;2022-10-17T07:07:40;14.50;99.90
69189;DHT22;56302;52.322;5.926;2022-10-17T07:10:06;14.60;99.90
69189;DHT22;56302;52.322;5.926;2022-10-17T07:12:35;14.60;99.90
69189;DHT22;56302;52.322;5.926;2022-10-17T07:15:01;14.70;99.90
69189;DHT22;56302;52.322;5.926;2022-10-17T07:17:29;14.80;99.90
69189;DHT22;56302;52.322;5.926;2022-10-17T07:19:54;14.90;99.90
69189;DHT22;56302;52.322;5.926;2022-10-17T07:22:20;15.00;99.90
69189;DHT22;56302;52.322;5.926;2022-10-17T07:24:45;14.90;99.90
69189;DHT22;56302;52.322;5.926;2022-10-17T07:27:12;15.00;99.90
69189;DHT22;56302;52.322;5.926;2022-10-17T07:29:38;15.10;99.90
69189;DHT22;56302;52.322;5.926;2022-10-17T07:32:03;15.20;99.90
69189;DHT22;56302;52.322;5.926;2022-10-17T07:34:33;15.30;99.90
69189;DHT22;56302;52.322;5.926;2022-10-17T07:36:59;15.30;99.90
69189;DHT22;56302;52.322;5.926;2022-10-17T07:39:24;15.20;99.90
69189;DHT22;56302;52.322;5.926;2022-10-17T07:41:50;15.30;99.90
69189;DHT22;56302;52.322;5.926;2022-10-17T07:44:15;15.40;99.90
69189;DHT22;56302;52.322;5.926;2022-10-17T07:46:41;15.40;99.90
69189;DHT22;56302;52.322;5.926;2022-10-17T07:49:06;15.40;99.90
69189;DHT22;56302;52.322;5.926;2022-10-17T07:51:32;15.50;99.90
69189;DHT22;56302;52.322;5.926;2022-10-17T07:53:58;15.50;99.90
69189;DHT22;56302;52.322;5.926;2022-10-17T07:56:23;15.40;99.90
69189;DHT22;56302;52.322;5.926;2022-10-17T07:58:50;15.50;99.90
69189;DHT22;56302;52.322;5.926;2022-10-17T08:01:16;15.50;99.90
69189;DHT22;56302;52.322;5.926;2022-10-17T08:03:46;15.50;99.90
69189;DHT22;56302;52.322;5.926;2022-10-17T08:06:12;15.60;99.90
69189;DHT22;56302;52.322;5.926;2022-10-17T08:08:38;15.60;99.90
69189;DHT22;56302;52.322;5.926;2022-10-17T08:11:08;15.60;99.90
69189;DHT22;56302;52.322;5.926;2022-10-17T08:13:44;15.60;99.90
69189;DHT22;56302;52.322;5.926;2022-10-17T08:16:11;15.60;99.90
69189;DHT22;56302;52.322;5.926;2022-10-17T08:18:39;15.70;99.90
69189;DHT22;56302;52.322;5.926;2022-10-17T08:21:05;15.70;99.90
69189;DHT22;56302;52.322;5.926;2022-10-17T08:23:32;15.70;99.90
69189;DHT22;56302;52.322;5.926;2022-10-17T08:25:59;15.70;99.90
69189;DHT22;56302;52.322;5.926;2022-10-17T08:28:25;15.80;99.90
69189;DHT22;56302;52.322;5.926;2022-10-17T08:30:50;15.90;99.90
69189;DHT22;56302;52.322;5.926;2022-10-17T08:33:16;15.90;99.50
69189;DHT22;56302;52.322;5.926;2022-10-17T08:35:41;16.00;99.00
69189;DHT22;56302;52.322;5.926;2022-10-17T08:38:07;16.10;98.30
69189;DHT22;56302;52.322;5.926;2022-10-17T08:40:32;16.10;98.00
69189;DHT22;56302;52.322;5.926;2022-10-17T08:46:06;16.10;98.00
69189;DHT22;56302;52.322;5.926;2022-10-17T08:48:41;16.10;98.30
69189;DHT22;56302;52.322;5.926;2022-10-17T08:51:12;16.10;98.70
69189;DHT22;56302;52.322;5.926;2022-10-17T08:54:04;16.00;99.00
69189;DHT22;56302;52.322;5.926;2022-10-17T08:56:49;16.00;99.40
69189;DHT22;56302;52.322;5.926;2022-10-17T08:59:33;15.90;99.70
69189;DHT22;56302;52.322;5.926;2022-10-17T09:02:12;15.90;99.90
69189;DHT22;56302;52.322;5.926;2022-10-17T09:10:14;15.90;99.90
69189;DHT22;56302;52.322;5.926;2022-10-17T09:13:18;15.90;99.90
69189;DHT22;56302;52.322;5.926;2022-10-17T09:16:03;15.90;99.90
69189;DHT22;56302;52.322;5.926;2022-10-17T09:18:39;15.90;99.90
69189;DHT22;56302;52.322;5.926;2022-10-17T09:21:29;15.90;99.90
69189;DHT22;56302;52.322;5.926;2022-10-17T09:24:02;15.90;99.90
69189;DHT22;56302;52.322;5.926;2022-10-17T09:26:29;15.80;99.90
69189;DHT22;56302;52.322;5.926;2022-10-17T09:28:56;15.90;99.90
69189;DHT22;56302;52.322;5.926;2022-10-17T09:31:44;15.90;99.90
69189;DHT22;56302;52.322;5.926;2022-10-17T09:34:11;15.80;99.90
69189;DHT22;56302;52.322;5.926;2022-10-17T09:36:38;15.80;99.90
69189;DHT22;56302;52.322;5.926;2022-10-17T09:39:17;15.90;99.90
69189;DHT22;56302;52.322;5.926;2022-10-17T09:41:48;15.90;99.90
69189;DHT22;56302;52.322;5.926;2022-10-17T09:49:31;15.90;99.90
69189;DHT22;56302;52.322;5.926;2022-10-17T09:51:57;15.80;99.90
69189;DHT22;56302;52.322;5.926;2022-10-17T09:54:27;15.80;99.90
69189;DHT22;56302;52.322;5.926;2022-10-17T09:57:06;15.80;99.90
69189;DHT22;56302;52.322;5.926;2022-10-17T09:59:43;15.80;99.90
69189;DHT22;56302;52.322;5.926;2022-10-17T10:02:17;15.80;99.90
69189;DHT22;56302;52.322;5.926;2022-10-17T10:07:18;15.80;99.90
69189;DHT22;56302;52.322;5.926;2022-10-17T10:09:47;15.80;99.90
69189;DHT22;56302;52.322;5.926;2022-10-17T10:12:27;15.70;99.90
69189;DHT22;56302;52.322;5.926;2022-10-17T10:14:54;15.70;99.90
69189;DHT22;56302;52.322;5.926;2022-10-17T10:17:40;15.80;99.90
69189;DHT22;56302;52.322;5.926;2022-10-17T10:20:34;15.80;99.90
69189;DHT22;56302;52.322;5.926;2022-10-17T10:23:11;15.80;99.90
69189;DHT22;56302;52.322;5.926;2022-10-17T10:25:48;15.80;99.90
69189;DHT22;56302;52.322;5.926;2022-10-17T10:28:16;15.80;99.90
69189;DHT22;56302;52.322;5.926;2022-10-17T10:30:47;15.90;99.90
69189;DHT22;56302;52.322;5.926;2022-10-17T10:33:14;15.90;99.90
69189;DHT22;56302;52.322;5.926;2022-10-17T10:35:39;16.00;99.90
69189;DHT22;56302;52.322;5.926;2022-10-17T10:38:14;16.00;99.90
69189;DHT22;56302;52.322;5.926;2022-10-17T10:40:47;16.00;99.90
69189;DHT22;56302;52.322;5.926;2022-10-17T10:43:21;15.90;99.90
69189;DHT22;56302;52.322;5.926;2022-10-17T10:45:48;16.00;99.90
69189;DHT22;56302;52.322;5.926;2022-10-17T10:48:32;16.00;99.90
69189;DHT22;56302;52.322;5.926;2022-10-17T10:51:08;15.90;99.90
69189;DHT22;56302;52.322;5.926;2022-10-17T10:59:04;16.00;99.90
69189;DHT22;56302;52.322;5.926;2022-10-17T11:01:50;16.00;99.90
69189;DHT22;56302;52.322;5.926;2022-10-17T11:04:36;16.10;99.90
69189;DHT22;56302;52.322;5.926;2022-10-17T11:07:12;16.10;99.90
69189;DHT22;56302;52.322;5.926;2022-10-17T11:09:59;16.20;99.90
69189;DHT22;56302;52.322;5.926;2022-10-17T11:12:38;16.10;99.90
69189;DHT22;56302;52.322;5.926;2022-10-17T11:15:22;16.10;99.90
69189;DHT22;56302;52.322;5.926;2022-10-17T11:17:59;16.10;99.90
69189;DHT22;56302;52.322;5.926;2022-10-17T11:20:48;16.10;99.90
69189;DHT22;56302;52.322;5.926;2022-10-17T11:23:19;16.10;99.90
69189;DHT22;56302;52.322;5.926;2022-10-17T11:25:50;16.20;99.90
69189;DHT22;56302;52.322;5.926;2022-10-17T11:28:18;16.20;99.90
69189;DHT22;56302;52.322;5.926;2022-10-17T11:30:48;16.20;99.90
69189;DHT22;56302;52.322;5.926;2022-10-17T11:33:21;16.20;99.90
69189;DHT22;56302;52.322;5.926;2022-10-17T11:35:50;16.10;99.90
69189;DHT22;56302;52.322;5.926;2022-10-17T11:44:18;16.20;99.90
69189;DHT22;56302;52.322;5.926;2022-10-17T11:46:47;16.20;99.90
69189;DHT22;56302;52.322;5.926;2022-10-17T11:49:16;16.20;99.90
69189;DHT22;56302;52.322;5.926;2022-10-17T11:51:49;16.20;99.90
69189;DHT22;56302;52.322;5.926;2022-10-17T11:54:36;16.20;99.90
69189;DHT22;56302;52.322;5.926;2022-10-17T12:02:31;16.20;99.90
69189;DHT22;56302;52.322;5.926;2022-10-17T12:05:18;16.30;99.90
69189;DHT22;56302;52.322;5.926;2022-10-17T12:07:49;16.30;99.90
69189;DHT22;56302;52.322;5.926;2022-10-17T12:12:54;16.30;99.90
69189;DHT22;56302;52.322;5.926;2022-10-17T12:18:01;16.30;99.90
69189;DHT22;56302;52.322;5.926;2022-10-17T12:20:33;16.40;99.90
69189;DHT22;56302;52.322;5.926;2022-10-17T12:25:51;16.40;99.90
69189;DHT22;56302;52.322;5.926;2022-10-17T12:28:48;16.40;99.90
69189;DHT22;56302;52.322;5.926;2022-10-17T12:33:51;16.50;99.90
69189;DHT22;56302;52.322;5.926;2022-10-17T12:38:48;16.50;99.90
69189;DHT22;56302;52.322;5.926;2022-10-17T12:41:14;16.50;99.90
69189;DHT22;56302;52.322;5.926;2022-10-17T12:43:47;16.60;99.90
69189;DHT22;56302;52.322;5.926;2022-10-17T12:46:53;16.60;99.90
69189;DHT22;56302;52.322;5.926;2022-10-17T13:05:34;16.60;99.60
69189;DHT22;56302;52.322;5.926;2022-10-17T13:08:03;16.60;99.50
69189;DHT22;56302;52.322;5.926;2022-10-17T13:10:32;16.60;99.50
69189;DHT22;56302;52.322;5.926;2022-10-17T13:13:11;16.60;99.40
69189;DHT22;56302;52.322;5.926;2022-10-17T13:15:38;16.60;99.20
69189;DHT22;56302;52.322;5.926;2022-10-17T13:18:04;16.60;99.40
69189;DHT22;56302;52.322;5.926;2022-10-17T13:20:31;16.60;99.30
69189;DHT22;56302;52.322;5.926;2022-10-17T13:22:57;16.50;99.10
69189;DHT22;56302;52.322;5.926;2022-10-17T13:25:24;16.50;99.20
69189;DHT22;56302;52.322;5.926;2022-10-17T13:28:03;16.50;99.20
69189;DHT22;56302;52.322;5.926;2022-10-17T13:30:31;16.50;99.20
69189;DHT22;56302;52.322;5.926;2022-10-17T13:32:57;16.50;99.20
69189;DHT22;56302;52.322;5.926;2022-10-17T13:35:27;16.50;99.10
69189;DHT22;56302;52.322;5.926;2022-10-17T13:37:53;16.50;99.20
69189;DHT22;56302;52.322;5.926;2022-10-17T13:40:23;16.50;99.10
69189;DHT22;56302;52.322;5.926;2022-10-17T13:42:50;16.50;99.20
69189;DHT22;56302;52.322;5.926;2022-10-17T13:45:31;16.40;99.30
69189;DHT22;56302;52.322;5.926;2022-10-17T13:48:05;16.40;99.40
69189;DHT22;56302;52.322;5.926;2022-10-17T13:50:41;16.40;99.40
69189;DHT22;56302;52.322;5.926;2022-10-17T13:53:18;16.30;99.40
69189;DHT22;56302;52.322;5.926;2022-10-17T13:56:26;16.30;99.40
69189;DHT22;56302;52.322;5.926;2022-10-17T13:58:54;16.20;99.20
69189;DHT22;56302;52.322;5.926;2022-10-17T14:01:23;16.10;98.80
69189;DHT22;56302;52.322;5.926;2022-10-17T14:03:49;15.90;98.20
69189;DHT22;56302;52.322;5.926;2022-10-17T14:06:20;15.90;98.10
69189;DHT22;56302;52.322;5.926;2022-10-17T14:09:07;15.70;98.00
69189;DHT22;56302;52.322;5.926;2022-10-17T14:11:43;15.70;97.70
69189;DHT22;56302;52.322;5.926;2022-10-17T14:14:24;15.70;97.80
69189;DHT22;56302;52.322;5.926;2022-10-17T14:16:51;15.70;97.70
69189;DHT22;56302;52.322;5.926;2022-10-17T14:19:28;15.70;97.80
69189;DHT22;56302;52.322;5.926;2022-10-17T14:22:17;15.70;97.80
69189;DHT22;56302;52.322;5.926;2022-10-17T14:24:43;15.70;97.80
69189;DHT22;56302;52.322;5.926;2022-10-17T14:29:55;15.70;97.90
69189;DHT22;56302;52.322;5.926;2022-10-17T14:32:32;15.80;97.90
69189;DHT22;56302;52.322;5.926;2022-10-17T14:35:00;15.80;98.00
69189;DHT22;56302;52.322;5.926;2022-10-17T14:37:47;15.80;98.30
69189;DHT22;56302;52.322;5.926;2022-10-17T14:40:24;15.80;98.30
69189;DHT22;56302;52.322;5.926;2022-10-17T14:42:52;15.90;98.40
69189;DHT22;56302;52.322;5.926;2022-10-17T14:45:29;15.90;98.50
69189;DHT22;56302;52.322;5.926;2022-10-17T14:48:18;15.90;98.60
69189;DHT22;56302;52.322;5.926;2022-10-17T14:51:10;16.00;98.60
69189;DHT22;56302;52.322;5.926;2022-10-17T14:53:37;16.00;98.60
69189;DHT22;56302;52.322;5.926;2022-10-17T14:56:32;16.00;98.50
69189;DHT22;56302;52.322;5.926;2022-10-17T14:58:58;16.00;98.50
69189;DHT22;56302;52.322;5.926;2022-10-17T15:01:23;16.00;98.50
69189;DHT22;56302;52.322;5.926;2022-10-17T15:03:49;16.00;98.40
69189;DHT22;56302;52.322;5.926;2022-10-17T15:06:20;16.10;98.50
69189;DHT22;56302;52.322;5.926;2022-10-17T15:08:46;16.10;98.40
69189;DHT22;56302;52.322;5.926;2022-10-17T15:11:12;16.10;98.30
69189;DHT22;56302;52.322;5.926;2022-10-17T15:13:37;16.10;98.20
69189;DHT22;56302;52.322;5.926;2022-10-17T15:16:23;16.10;98.10
69189;DHT22;56302;52.322;5.926;2022-10-17T15:18:49;16.10;98.10
69189;DHT22;56302;52.322;5.926;2022-10-17T15:21:19;16.10;98.00
69189;DHT22;56302;52.322;5.926;2022-10-17T15:23:45;16.00;97.90
69189;DHT22;56302;52.322;5.926;2022-10-17T15:26:23;16.00;97.90
69189;DHT22;56302;52.322;5.926;2022-10-17T15:28:50;16.00;98.10
69189;DHT22;56302;52.322;5.926;2022-10-17T15:31:18;16.00;98.10
69189;DHT22;56302;52.322;5.926;2022-10-17T15:33:44;15.90;98.20
69189;DHT22;56302;52.322;5.926;2022-10-17T15:36:26;15.90;98.20
69189;DHT22;56302;52.322;5.926;2022-10-17T15:38:58;15.90;98.20
69189;DHT22;56302;52.322;5.926;2022-10-17T15:41:26;15.90;97.90
69189;DHT22;56302;52.322;5.926;2022-10-17T15:43:52;15.90;97.90
69189;DHT22;56302;52.322;5.926;2022-10-17T15:46:38;15.90;98.00
69189;DHT22;56302;52.322;5.926;2022-10-17T15:49:10;15.80;98.00
69189;DHT22;56302;52.322;5.926;2022-10-17T15:51:36;15.80;98.00
69189;DHT22;56302;52.322;5.926;2022-10-17T15:54:02;15.80;97.90
69189;DHT22;56302;52.322;5.926;2022-10-17T15:56:40;15.80;97.90
69189;DHT22;56302;52.322;5.926;2022-10-17T15:59:13;15.80;97.90
69189;DHT22;56302;52.322;5.926;2022-10-17T16:01:40;15.80;98.10
69189;DHT22;56302;52.322;5.926;2022-10-17T16:04:08;15.80;98.10
69189;DHT22;56302;52.322;5.926;2022-10-17T16:06:37;15.70;98.10
69189;DHT22;56302;52.322;5.926;2022-10-17T16:09:02;15.70;98.10
69189;DHT22;56302;52.322;5.926;2022-10-17T16:11:31;15.70;98.00
69189;DHT22;56302;52.322;5.926;2022-10-17T16:14:06;15.60;98.00
69189;DHT22;56302;52.322;5.926;2022-10-17T16:16:32;15.60;98.00
69189;DHT22;56302;52.322;5.926;2022-10-17T16:18:58;15.60;98.20
69189;DHT22;56302;52.322;5.926;2022-10-17T16:21:26;15.50;98.20
69189;DHT22;56302;52.322;5.926;2022-10-17T16:23:52;15.50;98.30
69189;DHT22;56302;52.322;5.926;2022-10-17T16:26:18;15.40;98.20
69189;DHT22;56302;52.322;5.926;2022-10-17T16:28:43;15.40;98.10
69189;DHT22;56302;52.322;5.926;2022-10-17T16:31:26;15.40;98.00
69189;DHT22;56302;52.322;5.926;2022-10-17T16:33:56;15.30;98.20
69189;DHT22;56302;52.322;5.926;2022-10-17T16:36:22;15.30;98.10
69189;DHT22;56302;52.322;5.926;2022-10-17T16:38:48;15.20;98.00
69189;DHT22;56302;52.322;5.926;2022-10-17T16:41:54;15.20;98.00
69189;DHT22;56302;52.322;5.926;2022-10-17T16:44:13;15.20;98.00
69189;DHT22;56302;52.322;5.926;2022-10-17T16:46:39;15.10;98.00
69189;DHT22;56302;52.322;5.926;2022-10-17T16:49:05;15.10;98.00
69189;DHT22;56302;52.322;5.926;2022-10-17T16:51:32;15.00;98.10
69189;DHT22;56302;52.322;5.926;2022-10-17T16:54:00;15.00;98.20
69189;DHT22;56302;52.322;5.926;2022-10-17T16:56:27;15.00;98.10
69189;DHT22;56302;52.322;5.926;2022-10-17T16:58:57;14.90;98.10
69189;DHT22;56302;52.322;5.926;2022-10-17T17:01:24;14.90;98.10
69189;DHT22;56302;52.322;5.926;2022-10-17T17:03:51;14.90;98.20
69189;DHT22;56302;52.322;5.926;2022-10-17T17:06:25;14.80;98.10
69189;DHT22;56302;52.322;5.926;2022-10-17T17:08:51;14.80;98.10
69189;DHT22;56302;52.322;5.926;2022-10-17T17:11:20;14.80;98.20
69189;DHT22;56302;52.322;5.926;2022-10-17T17:13:46;14.80;98.10
69189;DHT22;56302;52.322;5.926;2022-10-17T17:16:16;14.70;98.10
69189;DHT22;56302;52.322;5.926;2022-10-17T17:18:42;14.70;98.20
69189;DHT22;56302;52.322;5.926;2022-10-17T17:21:10;14.70;98.20
69189;DHT22;56302;52.322;5.926;2022-10-17T17:23:38;14.60;98.40
69189;DHT22;56302;52.322;5.926;2022-10-17T17:26:11;14.60;98.50
69189;DHT22;56302;52.322;5.926;2022-10-17T17:28:37;14.60;98.60